South River, Missouri
Current Conditions -  °F | °C
As of 11:15 AM on Tuesday 21 Oct 2014 (Local Time) from KHAE Reporting Station
Clear Clear  
Wind Chill: 17°   Ceiling: Unl
Heat Index: 17°   Visibility: 10mi
Dew Point:   Wind: 6mph
Humidity: 39%   Direction: 70°ENE
Pressure: 30.16"   Gusts: NA
Location:  39.7865°N, 91.559°W
Report Text: KHAE 211615Z AUTO 07005KT 10SM CLR 17/03 A3016 RMK AO2
Loading
Personal Weather Stations






























Interactive Weather Map
Tropical Storm Tracking
New forecast layout! Learn more

10-Day Weather Forecast

Advertisements
Track Severe Weather on mobile